Terminal Aerodrome Forecast
Issued by NWS Paducah, KY

Home | Current Version | Previous Version | Text Only | Print | Product List | Glossary On
Versions: 1 2 3 4 5 6 7 8 9 10 11 12 13 14 15 16 17 18 19 20
863
FTUS43 KPAH 232359
TAFPAH
TAF
KPAH 232359Z 2400/2424 VRB03KT P6SM VCSH OVC080
     FM240600 06006KT 3SM SHRA OVC007
     FM241000 08008KT 2SM SHRA OVC008
     FM241400 15007KT 3SM SHRA VCTS OVC006CB
     FM241800 20012G20KT 3SM TSRA OVC025CB=

USA.gov is the U.S. government's official web portal to all federal, state and local government web resources and services.